Time;durP1;ratioP1;P1;durP2;ratioP2;P2;SDS_P1;SDS_P2;PMS_P1;PMS_P2;Temp;Humidity;BMP_temperature;BMP_pressure;BME280_temperature;BME280_humidity;BME280_pressure;Samples;Min_cycle;Max_cycle;Signal;HPM_P1;HPM_P2
2022/03/01 00:46:20;;;;;;;5.85;5.17;;;;;;;-1.09;71.46;94950.81;834102;71;32696;-82
2022/03/01 03:31:42;;;;;;;3.70;3.40;;;;;;;-1.59;69.23;94880.57;808705;72;32764;-81
2022/03/01 03:47:00;;;;;;;4.35;3.80;;;;;;;-1.50;69.56;94881.13;817511;69;32947;-78
2022/03/01 05:01:10;;;;;;;5.65;4.95;;;;;;;-1.92;72.22;94890.92;834532;71;30247;-79
2022/03/01 05:16:46;;;;;;;13.15;5.87;;;;;;;-2.14;74.37;94895.48;798376;73;32914;-78
2022/03/01 05:31:43;;;;;;;9.65;6.10;;;;;;;-2.05;74.72;94900.70;827985;71;27156;-79
2022/03/01 05:46:34;;;;;;;9.60;7.65;;;;;;;-1.73;73.76;94906.81;809698;72;33348;-76
2022/03/01 06:16:14;;;;;;;11.40;8.75;;;;;;;2.64;63.58;94931.95;835523;71;32784;-78
2022/03/01 06:31:14;;;;;;;8.98;8.08;;;;;;;5.30;55.44;94920.67;827984;71;32750;-79
2022/03/01 06:46:16;;;;;;;7.10;5.72;;;;;;;6.14;52.21;94921.22;834246;71;32814;-75
2022/03/01 07:01:16;;;;;;;7.97;6.05;;;;;;;5.74;52.20;94919.83;827948;71;32641;-76
2022/03/01 07:16:09;;;;;;;8.83;6.55;;;;;;;4.87;53.57;94924.06;835875;71;29743;-78
2022/03/01 07:31:09;;;;;;;6.08;5.15;;;;;;;3.68;56.13;94930.58;834460;71;30205;-76
2022/03/01 07:46:11;;;;;;;7.08;5.95;;;;;;;3.91;56.38;94928.36;835761;71;29698;-76
2022/03/01 08:01:16;;;;;;;7.12;6.08;;;;;;;4.38;55.23;94919.50;833959;71;32718;-77
2022/03/01 08:16:28;;;;;;;6.60;5.87;;;;;;;4.35;55.84;94922.56;833857;71;32764;-77
2022/03/01 08:31:16;;;;;;;8.30;6.90;;;;;;;5.06;54.32;94926.63;833880;71;32770;-79
2022/03/01 08:46:11;;;;;;;7.08;6.37;;;;;;;7.00;53.65;94940.56;828276;71;29644;-77
2022/03/01 09:01:09;;;;;;;6.90;6.15;;;;;;;5.45;52.43;94931.75;828181;71;30493;-76
2022/03/01 09:16:10;;;;;;;5.72;4.95;;;;;;;5.65;48.98;94938.20;835884;71;29602;-77
2022/03/01 09:31:15;;;;;;;6.78;5.90;;;;;;;5.69;49.28;94935.38;827641;71;32643;-79
2022/03/01 09:46:10;;;;;;;5.45;4.95;;;;;;;6.43;49.89;94949.08;828945;71;30255;-79
2022/03/01 10:01:13;;;;;;;6.70;6.15;;;;;;;6.78;47.52;94938.09;834610;71;30960;-79
2022/03/01 10:16:45;;;;;;;5.25;4.60;;;;;;;6.27;46.89;94935.15;780773;74;32555;-74
2022/03/01 10:46:17;;;;;;;6.05;5.50;;;;;;;4.42;51.89;94903.72;834223;71;31980;-77
2022/03/01 11:46:49;;;;;;;10.48;6.95;;;;;;;2.62;58.04;94857.05;809677;72;32395;-78
2022/03/01 12:16:29;;;;;;;7.00;6.30;;;;;;;3.08;59.80;94816.47;828269;71;31798;-78
2022/03/01 12:31:26;;;;;;;9.20;7.50;;;;;;;2.89;59.67;94811.19;827508;71;31695;-77
2022/03/01 13:01:24;;;;;;;9.08;7.15;;;;;;;2.38;60.99;94801.41;833932;71;32274;-79
2022/03/01 13:16:42;;;;;;;9.53;7.58;;;;;;;2.77;60.40;94794.38;795546;74;31888;-77
2022/03/01 13:31:26;;;;;;;6.65;5.67;;;;;;;2.70;58.79;94788.56;828466;71;31720;-78
2022/03/01 13:46:41;;;;;;;7.47;6.67;;;;;;;2.69;56.21;94788.27;787650;75;31958;-79
2022/03/01 14:01:16;;;;;;;9.48;7.20;;;;;;;2.32;58.66;94787.30;834072;71;31702;-77
2022/03/01 14:16:28;;;;;;;8.48;7.28;;;;;;;2.43;58.02;94780.52;827696;71;32160;-77
2022/03/01 14:31:45;;;;;;;7.62;6.92;;;;;;;2.28;58.74;94768.84;767550;76;32059;-76
2022/03/01 15:01:11;;;;;;;7.83;7.03;;;;;;;1.92;59.83;94783.62;833993;71;29196;-77
2022/03/01 15:16:16;;;;;;;8.10;7.17;;;;;;;1.56;63.12;94785.91;829083;71;31674;-80
2022/03/01 15:31:24;;;;;;;10.43;8.20;;;;;;;1.29;63.31;94794.08;828231;71;31809;-78
2022/03/01 16:01:23;;;;;;;13.78;9.23;;;;;;;0.88;64.88;94807.79;828081;71;31738;-78
2022/03/01 17:31:47;;;;;;;11.85;8.48;;;;;;;0.96;61.93;94841.06;809404;72;31829;-84
2022/03/01 20:01:20;;;;;;;26.77;16.27;;;;;;;0.97;66.24;94865.39;821484;71;33143;-80
2022/03/01 20:31:19;;;;;;;22.87;16.93;;;;;;;1.41;64.23;94852.27;823812;71;32878;-84
2022/03/01 20:46:12;;;;;;;21.62;15.03;;;;;;;1.39;63.98;94843.95;828706;71;31908;-83
2022/03/01 22:31:19;;;;;;;29.00;18.40;;;;;;;1.65;65.18;94823.38;828615;71;32737;-81
